Time;durP1;ratioP1;P1;durP2;ratioP2;P2;SDS_P1;SDS_P2;PMS_P1;PMS_P2;Temp;Humidity;BMP_temperature;BMP_pressure;BME280_temperature;BME280_humidity;BME280_pressure;Samples;Min_cycle;Max_cycle;Signal;HPM_P1;HPM_P2
2022/03/01 00:01:26;;;;;;;;;;;;;;;;;;2205838;59;1373;-72
2022/03/01 00:04:01;;;;;;;;;;;;;;;;;;2205314;59;1219;-72
2022/03/01 00:06:35;;;;;;;;;;;;;;;;;;2205434;59;1534;-72
2022/03/01 00:09:08;;;;;;;;;;;;;;;;;;2204693;59;1919;-72
2022/03/01 00:11:41;;;;;;;;;;;;;;;;;;2204894;67;1934;-72
2022/03/01 00:14:14;;;;;;;;;;;;;;;;;;2205699;67;1143;-72
2022/03/01 00:16:47;;;;;;;;;;;;;;;;;;2205457;59;1217;-72
2022/03/01 00:19:23;;;;;;;;;;;;;;;;;;2205682;59;2002;-72
2022/03/01 00:21:57;;;;;;;;;;;;;;;;;;2205651;67;1204;-72
2022/03/01 00:24:30;;;;;;;;;;;;;;;;;;2205969;59;1363;-72
2022/03/01 00:27:03;;;;;;;;;;;;;;;;;;2206658;59;1657;-72
2022/03/01 00:29:36;;;;;;;;;;;;;;;;;;2205740;59;1189;-72
2022/03/01 00:32:10;;;;;;;;;;;;;;;;;;2206196;67;1925;-72
2022/03/01 00:34:46;;;;;;;;;;;;;;;;;;2205912;59;1410;-72
2022/03/01 00:37:19;;;;;;;;;;;;;;;;;;2206075;67;1282;-72
2022/03/01 00:39:52;;;;;;;;;;;;;;;;;;2206238;59;1249;-72
2022/03/01 00:42:25;;;;;;;;;;;;;;;;;;2206517;67;1159;-70
2022/03/01 00:44:59;;;;;;;;;;;;;;;;;;2205371;59;1183;-71
2022/03/01 00:47:32;;;;;;;;;;;;;;;;;;2206249;59;1714;-71
2022/03/01 00:50:08;;;;;;;;;;;;;;;;;;2205185;59;1976;-71
2022/03/01 00:52:41;;;;;;;;;;;;;;;;;;2206224;67;1131;-70
2022/03/01 00:55:14;;;;;;;;;;;;;;;;;;2205862;59;1217;-71
2022/03/01 00:57:47;;;;;;;;;;;;;;;;;;2206579;59;1209;-71
2022/03/01 01:00:21;;;;;;;;;;;;;;;;;;2207036;59;1199;-71
2022/03/01 01:02:54;;;;;;;;;;;;;;;;;;2206281;60;1091;-71
2022/03/01 01:05:30;;;;;;;;;;;;;;;;;;2205734;59;1288;-71
2022/03/01 01:08:03;;;;;;;;;;;;;;;;;;2204656;59;1709;-71
2022/03/01 01:10:36;;;;;;;;;;;;;;;;;;2204782;59;1924;-71
2022/03/01 01:13:10;;;;;;;;;;;;;;;;;;2205223;67;1168;-71
2022/03/01 01:15:43;;;;;;;;;;;;;;;;;;2204411;59;1512;-71
2022/03/01 01:18:16;;;;;;;;;;;;;;;;;;2205851;59;1995;-71
2022/03/01 01:20:52;;;;;;;;;;;;;;;;;;2204758;67;1084;-70
2022/03/01 01:23:25;;;;;;;;;;;;;;;;;;2204427;59;1291;-71
2022/03/01 01:25:58;;;;;;;;;;;;;;;;;;2205219;67;1235;-71
2022/03/01 01:28:31;;;;;;;;;;;;;;;;;;2205111;59;2057;-71
2022/03/01 01:31:05;;;;;;;;;;;;;;;;;;2206079;67;1940;-70
2022/03/01 01:33:38;;;;;;;;;;;;;;;;;;2204457;67;1066;-71
2022/03/01 01:36:14;;;;;;;;;;;;;;;;;;2205071;67;1281;-71
2022/03/01 01:38:47;;;;;;;;;;;;;;;;;;2204955;59;1195;-71
2022/03/01 01:41:20;;;;;;;;;;;;;;;;;;2205556;67;1081;-70
2022/03/01 01:43:53;;;;;;;;;;;;;;;;;;2205198;59;1172;-70
2022/03/01 01:46:27;;;;;;;;;;;;;;;;;;2204270;67;1143;-71
2022/03/01 01:49:00;;;;;;;;;;;;;;;;;;2205453;59;1764;-71
2022/03/01 01:51:36;;;;;;;;;;;;;;;;;;2205231;67;1924;-71
2022/03/01 01:54:09;;;;;;;;;;;;;;;;;;2204833;59;1248;-71
2022/03/01 01:56:42;;;;;;;;;;;;;;;;;;2204969;67;1305;-71
2022/03/01 01:59:15;;;;;;;;;;;;;;;;;;2204505;59;1429;-71
2022/03/01 02:01:48;;;;;;;;;;;;;;;;;;2204910;67;1129;-71
2022/03/01 02:04:21;;;;;;;;;;;;;;;;;;2205085;67;1134;-71
2022/03/01 02:06:57;;;;;;;;;;;;;;;;;;2206213;59;1675;-70
2022/03/01 02:09:31;;;;;;;;;;;;;;;;;;2207003;59;1141;-70
2022/03/01 02:12:04;;;;;;;;;;;;;;;;;;2205400;59;2122;-70
2022/03/01 02:14:38;;;;;;;;;;;;;;;;;;2206203;59;1074;-70
2022/03/01 02:17:13;;;;;;;;;;;;;;;;;;2204954;67;1245;-70
2022/03/01 02:19:52;;;;;;;;;;;;;;;;;;2206020;59;1935;-70
2022/03/01 02:22:34;;;;;;;;;;;;;;;;;;2205459;67;1277;-70
2022/03/01 02:25:07;;;;;;;;;;;;;;;;;;2206350;59;1257;-71
2022/03/01 02:27:41;;;;;;;;;;;;;;;;;;2206456;59;1567;-71
2022/03/01 02:30:14;;;;;;;;;;;;;;;;;;2206681;67;1236;-71
2022/03/01 02:32:47;;;;;;;;;;;;;;;;;;2205633;67;2007;-70
2022/03/01 02:35:21;;;;;;;;;;;;;;;;;;2206059;67;1212;-70
2022/03/01 02:37:56;;;;;;;;;;;;;;;;;;2205277;67;1227;-70
2022/03/01 02:40:30;;;;;;;;;;;;;;;;;;2205805;67;1388;-70
2022/03/01 02:43:03;;;;;;;;;;;;;;;;;;2205485;59;1185;-70
2022/03/01 02:45:36;;;;;;;;;;;;;;;;;;2205878;59;1141;-70
2022/03/01 02:48:09;;;;;;;;;;;;;;;;;;2205879;59;1594;-71
2022/03/01 02:50:42;;;;;;;;;;;;;;;;;;2206256;67;1156;-70
2022/03/01 02:53:18;;;;;;;;;;;;;;;;;;2205810;67;1074;-70
2022/03/01 02:55:51;;;;;;;;;;;;;;;;;;2204812;60;1136;-70
2022/03/01 02:58:24;;;;;;;;;;;;;;;;;;2206066;59;1260;-70
2022/03/01 03:00:58;;;;;;;;;;;;;;;;;;2205830;59;1061;-71
2022/03/01 03:03:31;;;;;;;;;;;;;;;;;;2205974;59;1681;-70
2022/03/01 03:06:05;;;;;;;;;;;;;;;;;;2205971;67;1354;-70
2022/03/01 03:08:41;;;;;;;;;;;;;;;;;;2204909;59;1758;-70
2022/03/01 03:11:14;;;;;;;;;;;;;;;;;;2205861;59;1922;-70
2022/03/01 03:13:47;;;;;;;;;;;;;;;;;;2205940;67;1120;-70
2022/03/01 03:16:20;;;;;;;;;;;;;;;;;;2204980;67;1144;-71
2022/03/01 03:18:53;;;;;;;;;;;;;;;;;;2206067;59;1837;-70
2022/03/01 03:21:27;;;;;;;;;;;;;;;;;;2205722;59;1026;-70
2022/03/01 03:24:03;;;;;;;;;;;;;;;;;;2205719;59;1229;-71
2022/03/01 03:26:36;;;;;;;;;;;;;;;;;;2206444;59;1139;-70
2022/03/01 03:29:10;;;;;;;;;;;;;;;;;;2206089;59;1952;-71
2022/03/01 03:31:45;;;;;;;;;;;;;;;;;;2205199;67;1928;-70
2022/03/01 03:34:18;;;;;;;;;;;;;;;;;;2206669;59;1440;-70
2022/03/01 03:36:51;;;;;;;;;;;;;;;;;;2206074;59;2425;-70
2022/03/01 03:39:27;;;;;;;;;;;;;;;;;;2206655;59;1185;-70
2022/03/01 03:42:00;;;;;;;;;;;;;;;;;;2205922;59;1287;-71
2022/03/01 03:44:33;;;;;;;;;;;;;;;;;;2205717;59;1148;-70
2022/03/01 03:47:06;;;;;;;;;;;;;;;;;;2205937;59;2133;-70
2022/03/01 03:49:40;;;;;;;;;;;;;;;;;;2205599;59;1474;-70
2022/03/01 03:52:13;;;;;;;;;;;;;;;;;;2203913;67;1932;-71
2022/03/01 03:54:50;;;;;;;;;;;;;;;;;;2207019;59;1577;-70
2022/03/01 03:57:23;;;;;;;;;;;;;;;;;;2205760;59;1222;-71
2022/03/01 03:59:56;;;;;;;;;;;;;;;;;;2206256;67;1052;-70
2022/03/01 04:02:29;;;;;;;;;;;;;;;;;;2206111;59;1287;-70
2022/03/01 04:05:02;;;;;;;;;;;;;;;;;;2205780;59;1169;-70
2022/03/01 04:07:35;;;;;;;;;;;;;;;;;;2206160;59;1847;-71
2022/03/01 04:10:12;;;;;;;;;;;;;;;;;;2206067;59;1278;-70
2022/03/01 04:12:45;;;;;;;;;;;;;;;;;;2206913;67;1983;-70
2022/03/01 04:15:18;;;;;;;;;;;;;;;;;;2205703;59;1183;-70
2022/03/01 04:17:51;;;;;;;;;;;;;;;;;;2205169;67;1267;-70
2022/03/01 04:20:25;;;;;;;;;;;;;;;;;;2205872;59;2250;-70
2022/03/01 04:22:58;;;;;;;;;;;;;;;;;;2206004;59;1347;-71
2022/03/01 04:25:34;;;;;;;;;;;;;;;;;;2205487;59;1256;-71
2022/03/01 04:28:07;;;;;;;;;;;;;;;;;;2204020;59;2094;-70
2022/03/01 04:30:40;;;;;;;;;;;;;;;;;;2205928;59;1073;-71
2022/03/01 04:33:13;;;;;;;;;;;;;;;;;;2204727;67;1973;-72
2022/03/01 04:35:46;;;;;;;;;;;;;;;;;;2204414;67;1234;-73
2022/03/01 04:38:20;;;;;;;;;;;;;;;;;;2207187;67;1217;-72
2022/03/01 04:40:56;;;;;;;;;;;;;;;;;;2205763;67;1117;-72
2022/03/01 04:43:30;;;;;;;;;;;;;;;;;;2204524;67;1095;-72
2022/03/01 04:46:03;;;;;;;;;;;;;;;;;;2204940;59;1461;-73
2022/03/01 04:48:37;;;;;;;;;;;;;;;;;;2205519;59;1938;-72
2022/03/01 04:51:10;;;;;;;;;;;;;;;;;;2205960;67;1319;-72
2022/03/01 04:53:43;;;;;;;;;;;;;;;;;;2204925;59;1958;-72
2022/03/01 04:56:19;;;;;;;;;;;;;;;;;;2204482;59;1233;-72
2022/03/01 04:58:52;;;;;;;;;;;;;;;;;;2208785;53;3602;-69
2022/03/01 05:01:26;;;;;;;;;;;;;;;;;;2208120;59;1060;-69
2022/03/01 05:04:00;;;;;;;;;;;;;;;;;;2209419;67;1250;-69
2022/03/01 05:06:37;;;;;;;;;;;;;;;;;;2210798;59;1185;-69
2022/03/01 05:09:14;;;;;;;;;;;;;;;;;;2210178;59;1597;-69
2022/03/01 05:11:50;;;;;;;;;;;;;;;;;;2211313;67;1983;-69
2022/03/01 05:14:30;;;;;;;;;;;;;;;;;;2209989;59;1554;-69
2022/03/01 05:17:07;;;;;;;;;;;;;;;;;;2210898;59;1700;-69
2022/03/01 05:19:44;;;;;;;;;;;;;;;;;;2211608;66;2365;-72
2022/03/01 05:22:18;;;;;;;;;;;;;;;;;;2210856;67;1062;-69
2022/03/01 05:24:52;;;;;;;;;;;;;;;;;;2211420;59;1289;-69
2022/03/01 05:27:30;;;;;;;;;;;;;;;;;;2210097;67;1278;-69
2022/03/01 05:30:04;;;;;;;;;;;;;;;;;;2209643;59;1587;-69
2022/03/01 05:32:42;;;;;;;;;;;;;;;;;;2210771;59;1977;-69
2022/03/01 05:35:19;;;;;;;;;;;;;;;;;;2210374;59;1238;-69
2022/03/01 05:37:59;;;;;;;;;;;;;;;;;;2210338;59;1592;-69
2022/03/01 05:40:34;;;;;;;;;;;;;;;;;;2211090;59;1171;-69
2022/03/01 05:43:10;;;;;;;;;;;;;;;;;;2210766;67;1096;-69
2022/03/01 05:45:47;;;;;;;;;;;;;;;;;;2211784;59;1225;-69
2022/03/01 05:48:20;;;;;;;;;;;;;;;;;;2211171;59;1367;-70
2022/03/01 05:50:54;;;;;;;;;;;;;;;;;;2211148;59;1216;-69
2022/03/01 05:53:28;;;;;;;;;;;;;;;;;;2210250;59;1916;-69
2022/03/01 05:56:01;;;;;;;;;;;;;;;;;;2210622;67;1061;-69
2022/03/01 05:58:37;;;;;;;;;;;;;;;;;;2208289;59;2044;-69
2022/03/01 06:01:11;;;;;;;;;;;;;;;;;;2210202;59;1423;-69
2022/03/01 06:03:44;;;;;;;;;;;;;;;;;;2211033;67;1175;-69
2022/03/01 06:06:18;;;;;;;;;;;;;;;;;;2209747;59;1077;-69
2022/03/01 06:08:52;;;;;;;;;;;;;;;;;;2211152;67;1121;-69
2022/03/01 06:11:26;;;;;;;;;;;;;;;;;;2209121;59;1810;-69
2022/03/01 06:14:02;;;;;;;;;;;;;;;;;;2209938;59;1933;-69
2022/03/01 06:16:38;;;;;;;;;;;;;;;;;;2210419;59;1248;-69
2022/03/01 06:19:18;;;;;;;;;;;;;;;;;;2209655;59;1932;-69
2022/03/01 06:21:52;;;;;;;;;;;;;;;;;;2210501;67;1279;-69
2022/03/01 06:24:28;;;;;;;;;;;;;;;;;;2210943;59;1197;-69
2022/03/01 06:27:02;;;;;;;;;;;;;;;;;;2209791;67;1169;-70
2022/03/01 06:29:39;;;;;;;;;;;;;;;;;;2210427;59;1216;-69
2022/03/01 06:32:13;;;;;;;;;;;;;;;;;;2210689;59;1929;-69
2022/03/01 06:34:46;;;;;;;;;;;;;;;;;;2210252;59;1143;-69
2022/03/01 06:37:19;;;;;;;;;;;;;;;;;;2209711;59;1787;-69
2022/03/01 06:39:53;;;;;;;;;;;;;;;;;;2211011;59;1303;-69
2022/03/01 06:42:31;;;;;;;;;;;;;;;;;;2209716;59;1183;-69
2022/03/01 06:45:07;;;;;;;;;;;;;;;;;;2210679;59;1187;-69
2022/03/01 06:47:41;;;;;;;;;;;;;;;;;;2210733;59;1498;-69
2022/03/01 06:50:29;;;;;;;;;;;;;;;;;;2211174;67;1115;-69
2022/03/01 06:53:03;;;;;;;;;;;;;;;;;;2210829;59;1938;-69
2022/03/01 06:55:38;;;;;;;;;;;;;;;;;;2210975;59;1871;-69
2022/03/01 06:58:12;;;;;;;;;;;;;;;;;;2210310;59;1591;-69
2022/03/01 07:00:49;;;;;;;;;;;;;;;;;;2211128;59;1210;-69
2022/03/01 07:03:22;;;;;;;;;;;;;;;;;;2211748;59;1855;-69
2022/03/01 07:05:55;;;;;;;;;;;;;;;;;;2211907;59;1197;-69
2022/03/01 07:08:29;;;;;;;;;;;;;;;;;;2212318;59;1611;-69
2022/03/01 07:11:02;;;;;;;;;;;;;;;;;;2210926;59;1575;-69
2022/03/01 07:13:36;;;;;;;;;;;;;;;;;;2211023;59;1920;-69
2022/03/01 07:16:12;;;;;;;;;;;;;;;;;;2211269;59;1978;-69
2022/03/01 07:18:47;;;;;;;;;;;;;;;;;;2211680;59;2042;-69
2022/03/01 07:21:20;;;;;;;;;;;;;;;;;;2211795;59;1675;-69
2022/03/01 07:23:57;;;;;;;;;;;;;;;;;;2211712;59;1712;-69
2022/03/01 07:26:30;;;;;;;;;;;;;;;;;;2211728;67;1243;-69
2022/03/01 07:29:04;;;;;;;;;;;;;;;;;;2211334;59;1270;-69
2022/03/01 07:31:40;;;;;;;;;;;;;;;;;;2210833;59;1386;-69
2022/03/01 07:34:14;;;;;;;;;;;;;;;;;;2210828;59;1980;-69
2022/03/01 07:36:47;;;;;;;;;;;;;;;;;;2210382;59;1512;-69
2022/03/01 07:39:20;;;;;;;;;;;;;;;;;;2210832;59;1986;-69
2022/03/01 07:41:54;;;;;;;;;;;;;;;;;;2210487;59;1700;-70
2022/03/01 07:44:27;;;;;;;;;;;;;;;;;;2211398;59;1128;-70
2022/03/01 07:47:03;;;;;;;;;;;;;;;;;;2212107;59;1491;-70
2022/03/01 07:49:37;;;;;;;;;;;;;;;;;;2212184;59;1081;-69
2022/03/01 07:52:13;;;;;;;;;;;;;;;;;;2211319;59;1153;-69
2022/03/01 07:54:47;;;;;;;;;;;;;;;;;;2211020;59;2181;-69
2022/03/01 07:57:21;;;;;;;;;;;;;;;;;;2210711;59;1755;-69
2022/03/01 07:59:54;;;;;;;;;;;;;;;;;;2209684;59;1891;-69
2022/03/01 08:02:30;;;;;;;;;;;;;;;;;;2211383;67;1307;-69
2022/03/01 08:05:04;;;;;;;;;;;;;;;;;;2210803;59;1485;-69
2022/03/01 08:10:52;;;;;;;;;;;;;;;;;;2205920;59;1716;-69
2022/03/01 08:13:27;;;;;;;;;;;;;;;;;;2210673;59;3912;-70
2022/03/01 08:16:00;;;;;;;;;;;;;;;;;;2211060;59;1686;-69
2022/03/01 08:18:36;;;;;;;;;;;;;;;;;;2210700;59;1938;-69
2022/03/01 08:21:10;;;;;;;;;;;;;;;;;;2211483;67;1077;-69
2022/03/01 08:23:44;;;;;;;;;;;;;;;;;;2211748;59;1222;-69
2022/03/01 08:26:17;;;;;;;;;;;;;;;;;;2211014;59;1846;-69
2022/03/01 08:28:51;;;;;;;;;;;;;;;;;;2211271;59;1906;-70
2022/03/01 08:31:25;;;;;;;;;;;;;;;;;;2212180;67;1275;-69
2022/03/01 08:34:01;;;;;;;;;;;;;;;;;;2210978;67;1985;-69
2022/03/01 08:36:35;;;;;;;;;;;;;;;;;;2208615;59;1487;-69
2022/03/01 08:39:08;;;;;;;;;;;;;;;;;;2209340;59;1523;-69
2022/03/01 08:41:44;;;;;;;;;;;;;;;;;;2211764;67;1134;-69
2022/03/01 08:44:18;;;;;;;;;;;;;;;;;;2210767;67;1107;-69
2022/03/01 08:46:51;;;;;;;;;;;;;;;;;;2210965;59;2403;-69
2022/03/01 08:49:27;;;;;;;;;;;;;;;;;;2210117;59;2486;-69
2022/03/01 08:52:00;;;;;;;;;;;;;;;;;;2210510;64;1794;-69
2022/03/01 08:54:34;;;;;;;;;;;;;;;;;;2212044;59;1919;-69
2022/03/01 08:57:08;;;;;;;;;;;;;;;;;;2211960;59;1600;-69
2022/03/01 08:59:42;;;;;;;;;;;;;;;;;;2210963;59;1147;-70
2022/03/01 09:02:17;;;;;;;;;;;;;;;;;;2211144;59;1370;-69
2022/03/01 09:04:53;;;;;;;;;;;;;;;;;;2211037;59;1843;-69
2022/03/01 09:07:27;;;;;;;;;;;;;;;;;;2211610;59;1239;-69
2022/03/01 09:10:00;;;;;;;;;;;;;;;;;;2211409;67;1252;-69
2022/03/01 09:12:34;;;;;;;;;;;;;;;;;;2211116;59;1612;-69
2022/03/01 09:15:07;;;;;;;;;;;;;;;;;;2210997;59;1941;-69
2022/03/01 09:17:40;;;;;;;;;;;;;;;;;;2211557;59;1713;-69
2022/03/01 09:20:17;;;;;;;;;;;;;;;;;;2210822;59;2009;-69
2022/03/01 09:22:50;;;;;;;;;;;;;;;;;;2211437;59;2103;-69
2022/03/01 09:25:24;;;;;;;;;;;;;;;;;;2211831;59;1319;-69
2022/03/01 09:27:57;;;;;;;;;;;;;;;;;;2211371;59;1264;-69
2022/03/01 09:30:30;;;;;;;;;;;;;;;;;;2210887;59;1417;-70
2022/03/01 09:33:04;;;;;;;;;;;;;;;;;;2211187;59;1291;-69
2022/03/01 09:35:40;;;;;;;;;;;;;;;;;;2210886;59;1207;-69
2022/03/01 09:38:13;;;;;;;;;;;;;;;;;;2210634;59;1879;-69
2022/03/01 09:40:48;;;;;;;;;;;;;;;;;;2210314;59;1190;-69
2022/03/01 09:43:21;;;;;;;;;;;;;;;;;;2210130;67;1151;-69
2022/03/01 09:45:54;;;;;;;;;;;;;;;;;;2210699;59;1985;-69
2022/03/01 09:48:28;;;;;;;;;;;;;;;;;;2209495;59;2485;-70
2022/03/01 09:51:05;;;;;;;;;;;;;;;;;;2209805;67;2691;-69
2022/03/01 09:53:38;;;;;;;;;;;;;;;;;;2210143;59;2075;-69
2022/03/01 09:56:12;;;;;;;;;;;;;;;;;;2211579;59;1627;-70
2022/03/01 09:58:47;;;;;;;;;;;;;;;;;;2209624;59;1921;-69
2022/03/01 10:01:20;;;;;;;;;;;;;;;;;;2209075;59;1445;-69
2022/03/01 10:03:54;;;;;;;;;;;;;;;;;;2210817;59;2382;-70
2022/03/01 10:06:34;;;;;;;;;;;;;;;;;;2211097;59;1839;-69
2022/03/01 10:09:14;;;;;;;;;;;;;;;;;;2211449;59;1861;-70
2022/03/01 10:11:47;;;;;;;;;;;;;;;;;;2210774;59;1629;-70
2022/03/01 10:14:29;;;;;;;;;;;;;;;;;;2210780;67;1932;-70
2022/03/01 10:17:03;;;;;;;;;;;;;;;;;;2210227;67;1202;-69
2022/03/01 10:19:36;;;;;;;;;;;;;;;;;;2210409;59;1498;-70
2022/03/01 10:22:12;;;;;;;;;;;;;;;;;;2211722;59;1509;-70
2022/03/01 10:24:49;;;;;;;;;;;;;;;;;;2210362;59;6283;-70
2022/03/01 10:27:29;;;;;;;;;;;;;;;;;;2211406;59;1418;-70
2022/03/01 10:30:03;;;;;;;;;;;;;;;;;;2211047;59;1156;-70
2022/03/01 10:32:36;;;;;;;;;;;;;;;;;;2211756;59;1377;-69
2022/03/01 10:35:11;;;;;;;;;;;;;;;;;;2211595;67;1937;-70
2022/03/01 10:37:52;;;;;;;;;;;;;;;;;;2210965;59;1636;-70
2022/03/01 10:40:27;;;;;;;;;;;;;;;;;;2208235;59;1756;-70
2022/03/01 10:43:02;;;;;;;;;;;;;;;;;;2211905;67;1052;-69
2022/03/01 10:45:36;;;;;;;;;;;;;;;;;;2212784;67;1231;-70
2022/03/01 10:48:10;;;;;;;;;;;;;;;;;;2210311;59;2770;-70
2022/03/01 10:50:43;;;;;;;;;;;;;;;;;;2207992;59;2769;-71
2022/03/01 10:53:29;;;;;;;;;;;;;;;;;;2209417;59;2267;-69
2022/03/01 10:56:03;;;;;;;;;;;;;;;;;;2210418;59;1971;-70
2022/03/01 10:58:37;;;;;;;;;;;;;;;;;;2209795;53;3677;-69
2022/03/01 11:01:11;;;;;;;;;;;;;;;;;;2207958;59;1581;-69
2022/03/01 11:03:48;;;;;;;;;;;;;;;;;;2209521;59;1070;-68
2022/03/01 11:06:21;;;;;;;;;;;;;;;;;;2209202;59;1207;-68
2022/03/01 11:08:57;;;;;;;;;;;;;;;;;;2208540;67;1211;-68
2022/03/01 11:11:32;;;;;;;;;;;;;;;;;;2207161;59;3045;-68
2022/03/01 11:14:06;;;;;;;;;;;;;;;;;;2207573;59;1981;-68
2022/03/01 11:16:45;;;;;;;;;;;;;;;;;;2208090;59;1259;-68
2022/03/01 11:19:36;;;;;;;;;;;;;;;;;;2207797;59;1838;-68
2022/03/01 11:22:18;;;;;;;;;;;;;;;;;;2208121;67;1236;-68
2022/03/01 11:24:54;;;;;;;;;;;;;;;;;;2209371;67;1334;-68
2022/03/01 11:27:28;;;;;;;;;;;;;;;;;;2209916;59;1242;-68
2022/03/01 11:30:08;;;;;;;;;;;;;;;;;;2208488;67;1082;-68
2022/03/01 11:32:42;;;;;;;;;;;;;;;;;;2207907;59;1221;-69
2022/03/01 11:35:20;;;;;;;;;;;;;;;;;;2209161;67;1996;-68
2022/03/01 11:38:01;;;;;;;;;;;;;;;;;;2208251;59;1888;-69
2022/03/01 11:40:39;;;;;;;;;;;;;;;;;;2208193;67;1786;-68
2022/03/01 11:43:13;;;;;;;;;;;;;;;;;;2209631;67;1235;-68
2022/03/01 11:45:48;;;;;;;;;;;;;;;;;;2207919;67;1278;-68
2022/03/01 11:48:22;;;;;;;;;;;;;;;;;;2208095;59;1261;-68
2022/03/01 11:50:57;;;;;;;;;;;;;;;;;;2206044;59;2509;-68
2022/03/01 11:53:32;;;;;;;;;;;;;;;;;;2206785;59;2291;-68
2022/03/01 11:56:09;;;;;;;;;;;;;;;;;;2206809;59;1928;-68
2022/03/01 11:58:48;;;;;;;;;;;;;;;;;;2206285;59;2095;-68
2022/03/01 12:01:23;;;;;;;;;;;;;;;;;;2209419;59;1202;-68
2022/03/01 12:04:01;;;;;;;;;;;;;;;;;;2209350;67;1128;-68
2022/03/01 12:06:36;;;;;;;;;;;;;;;;;;2208927;67;1252;-68
2022/03/01 12:09:10;;;;;;;;;;;;;;;;;;2209318;59;1256;-68
2022/03/01 12:11:47;;;;;;;;;;;;;;;;;;2209030;67;1146;-68
2022/03/01 12:14:22;;;;;;;;;;;;;;;;;;2207898;59;1935;-68
2022/03/01 12:16:55;;;;;;;;;;;;;;;;;;2208424;59;1571;-68
2022/03/01 12:19:34;;;;;;;;;;;;;;;;;;2209300;59;1819;-68
2022/03/01 12:22:07;;;;;;;;;;;;;;;;;;2207992;67;1204;-68
2022/03/01 12:24:40;;;;;;;;;;;;;;;;;;2208565;59;1232;-68
2022/03/01 12:27:16;;;;;;;;;;;;;;;;;;2208870;67;1137;-68
2022/03/01 12:29:53;;;;;;;;;;;;;;;;;;2208976;59;1192;-68
2022/03/01 12:32:27;;;;;;;;;;;;;;;;;;2208881;59;1438;-68
2022/03/01 12:35:02;;;;;;;;;;;;;;;;;;2208620;59;1941;-68
2022/03/01 12:37:35;;;;;;;;;;;;;;;;;;2208301;59;1925;-68
2022/03/01 12:40:09;;;;;;;;;;;;;;;;;;2208802;59;1774;-68
2022/03/01 12:42:45;;;;;;;;;;;;;;;;;;2208212;59;1214;-68
2022/03/01 12:45:18;;;;;;;;;;;;;;;;;;2209191;59;1996;-68
2022/03/01 12:47:56;;;;;;;;;;;;;;;;;;2206648;59;1638;-68
2022/03/01 12:50:29;;;;;;;;;;;;;;;;;;2207959;59;2490;-68
2022/03/01 12:53:02;;;;;;;;;;;;;;;;;;2207058;59;2670;-67
2022/03/01 12:55:35;;;;;;;;;;;;;;;;;;2207415;59;1929;-68
2022/03/01 12:58:19;;;;;;;;;;;;;;;;;;2208087;59;2007;-68
2022/03/01 13:00:53;;;;;;;;;;;;;;;;;;2207381;59;9237;-68
2022/03/01 13:03:27;;;;;;;;;;;;;;;;;;2203972;67;1248;-68
2022/03/01 13:06:11;;;;;;;;;;;;;;;;;;2208692;59;1203;-68
2022/03/01 13:08:45;;;;;;;;;;;;;;;;;;2207684;59;1220;-68
2022/03/01 13:11:18;;;;;;;;;;;;;;;;;;2208955;67;1195;-68
2022/03/01 13:13:56;;;;;;;;;;;;;;;;;;2208248;59;1429;-69
2022/03/01 13:16:33;;;;;;;;;;;;;;;;;;2208529;59;1993;-68
2022/03/01 13:19:07;;;;;;;;;;;;;;;;;;2206923;59;1766;-68
2022/03/01 13:21:41;;;;;;;;;;;;;;;;;;2207909;59;1184;-68
2022/03/01 13:24:15;;;;;;;;;;;;;;;;;;2208498;59;1259;-68
2022/03/01 13:26:49;;;;;;;;;;;;;;;;;;2206625;59;7790;-68
2022/03/01 13:29:26;;;;;;;;;;;;;;;;;;2206873;59;1187;-68
2022/03/01 13:32:04;;;;;;;;;;;;;;;;;;2208499;67;1159;-68
2022/03/01 13:34:37;;;;;;;;;;;;;;;;;;2208259;59;1926;-68
2022/03/01 13:37:11;;;;;;;;;;;;;;;;;;2208668;67;1163;-68
2022/03/01 13:39:45;;;;;;;;;;;;;;;;;;2208297;59;2032;-68
2022/03/01 13:42:19;;;;;;;;;;;;;;;;;;2208063;67;1282;-68
2022/03/01 13:44:56;;;;;;;;;;;;;;;;;;2208469;67;1206;-68
2022/03/01 13:47:30;;;;;;;;;;;;;;;;;;2206551;59;1619;-68
2022/03/01 13:50:04;;;;;;;;;;;;;;;;;;2206561;59;1679;-68
2022/03/01 13:52:38;;;;;;;;;;;;;;;;;;2205732;59;2493;-68
2022/03/01 13:55:12;;;;;;;;;;;;;;;;;;2206915;59;2375;-68
2022/03/01 13:57:46;;;;;;;;;;;;;;;;;;2208424;59;1919;-67
2022/03/01 14:00:23;;;;;;;;;;;;;;;;;;2206570;59;1188;-67
2022/03/01 14:02:59;;;;;;;;;;;;;;;;;;2206422;59;1116;-68
2022/03/01 14:05:32;;;;;;;;;;;;;;;;;;2208232;59;1561;-68
2022/03/01 14:08:07;;;;;;;;;;;;;;;;;;2208716;59;1303;-68
2022/03/01 14:10:43;;;;;;;;;;;;;;;;;;2207796;59;1534;-68
2022/03/01 14:13:18;;;;;;;;;;;;;;;;;;2206527;59;1505;-68
2022/03/01 14:15:54;;;;;;;;;;;;;;;;;;2207608;59;1917;-67
2022/03/01 14:18:34;;;;;;;;;;;;;;;;;;2206535;59;1730;-68
2022/03/01 14:21:09;;;;;;;;;;;;;;;;;;2206315;59;1844;-68
2022/03/01 14:23:43;;;;;;;;;;;;;;;;;;2207474;59;1233;-68
2022/03/01 14:26:17;;;;;;;;;;;;;;;;;;2207957;59;1146;-68
2022/03/01 14:28:54;;;;;;;;;;;;;;;;;;2207638;67;1236;-68
2022/03/01 14:31:31;;;;;;;;;;;;;;;;;;2208008;59;1242;-68
2022/03/01 14:34:05;;;;;;;;;;;;;;;;;;2206757;59;1465;-68
2022/03/01 14:36:38;;;;;;;;;;;;;;;;;;2206843;59;1991;-68
2022/03/01 14:39:11;;;;;;;;;;;;;;;;;;2208789;59;1851;-68
2022/03/01 14:41:44;;;;;;;;;;;;;;;;;;2208383;67;1140;-68
2022/03/01 14:44:17;;;;;;;;;;;;;;;;;;2208326;59;1245;-67
2022/03/01 14:46:53;;;;;;;;;;;;;;;;;;2208845;67;1173;-67
2022/03/01 14:49:26;;;;;;;;;;;;;;;;;;2207904;59;1751;-68
2022/03/01 14:51:59;;;;;;;;;;;;;;;;;;2208215;59;1208;-68
2022/03/01 14:54:33;;;;;;;;;;;;;;;;;;2205836;59;3174;-68
2022/03/01 14:57:06;;;;;;;;;;;;;;;;;;2208062;59;1933;-68
2022/03/01 14:59:39;;;;;;;;;;;;;;;;;;2207836;59;2313;-67
2022/03/01 15:02:15;;;;;;;;;;;;;;;;;;2208910;59;1162;-68
2022/03/01 15:04:50;;;;;;;;;;;;;;;;;;2208078;59;1386;-68
2022/03/01 15:07:24;;;;;;;;;;;;;;;;;;2206838;59;1680;-68
2022/03/01 15:09:57;;;;;;;;;;;;;;;;;;2208100;59;1686;-68
2022/03/01 15:12:30;;;;;;;;;;;;;;;;;;2207399;59;1633;-68
2022/03/01 15:15:03;;;;;;;;;;;;;;;;;;2207943;67;1258;-67
2022/03/01 15:17:42;;;;;;;;;;;;;;;;;;2208133;59;1997;-68
2022/03/01 15:20:17;;;;;;;;;;;;;;;;;;2207673;59;1280;-67
2022/03/01 15:22:50;;;;;;;;;;;;;;;;;;2208327;67;1210;-68
2022/03/01 15:25:24;;;;;;;;;;;;;;;;;;2208452;59;1388;-68
2022/03/01 15:27:57;;;;;;;;;;;;;;;;;;2209558;67;1259;-68
2022/03/01 15:30:30;;;;;;;;;;;;;;;;;;2209048;67;1195;-68
2022/03/01 15:33:06;;;;;;;;;;;;;;;;;;2208662;67;1344;-68
2022/03/01 15:35:39;;;;;;;;;;;;;;;;;;2209422;59;1933;-68
2022/03/01 15:38:12;;;;;;;;;;;;;;;;;;2208229;59;1566;-67
2022/03/01 15:40:45;;;;;;;;;;;;;;;;;;2208976;59;1608;-67
2022/03/01 15:43:18;;;;;;;;;;;;;;;;;;2209170;59;1263;-68
2022/03/01 15:45:52;;;;;;;;;;;;;;;;;;2207537;67;1067;-68
2022/03/01 15:48:27;;;;;;;;;;;;;;;;;;2208841;59;1288;-68
2022/03/01 15:51:01;;;;;;;;;;;;;;;;;;2208034;67;1202;-68
2022/03/01 15:53:34;;;;;;;;;;;;;;;;;;2206991;59;2540;-68
2022/03/01 15:56:07;;;;;;;;;;;;;;;;;;2206577;59;2621;-67
2022/03/01 15:58:40;;;;;;;;;;;;;;;;;;2209067;59;1784;-68
2022/03/01 16:01:15;;;;;;;;;;;;;;;;;;2209585;59;1205;-68
2022/03/01 16:03:51;;;;;;;;;;;;;;;;;;2206242;59;1702;-68
2022/03/01 16:06:24;;;;;;;;;;;;;;;;;;2208104;59;1188;-68
2022/03/01 16:08:57;;;;;;;;;;;;;;;;;;2208183;67;1318;-68
2022/03/01 16:11:30;;;;;;;;;;;;;;;;;;2206923;59;1101;-67
2022/03/01 16:14:03;;;;;;;;;;;;;;;;;;2208210;59;1910;-68
2022/03/01 16:16:36;;;;;;;;;;;;;;;;;;2204716;59;1929;-67
2022/03/01 16:19:12;;;;;;;;;;;;;;;;;;2205364;59;2148;-68
2022/03/01 16:21:46;;;;;;;;;;;;;;;;;;2207302;59;1907;-68
2022/03/01 16:24:19;;;;;;;;;;;;;;;;;;2207121;67;1146;-67
2022/03/01 16:26:52;;;;;;;;;;;;;;;;;;2206250;59;2187;-67
2022/03/01 16:29:25;;;;;;;;;;;;;;;;;;2204853;59;2686;-68
2022/03/01 16:31:58;;;;;;;;;;;;;;;;;;2209252;59;1258;-68
2022/03/01 16:34:34;;;;;;;;;;;;;;;;;;2208710;67;1151;-68
2022/03/01 16:37:07;;;;;;;;;;;;;;;;;;2208912;67;1979;-68
2022/03/01 16:39:43;;;;;;;;;;;;;;;;;;2206795;59;1992;-68
2022/03/01 16:42:16;;;;;;;;;;;;;;;;;;2207814;67;1264;-68
2022/03/01 16:44:49;;;;;;;;;;;;;;;;;;2206530;59;2086;-68
2022/03/01 16:47:22;;;;;;;;;;;;;;;;;;2207261;59;1682;-67
2022/03/01 16:49:58;;;;;;;;;;;;;;;;;;2208641;67;2541;-67
2022/03/01 16:52:31;;;;;;;;;;;;;;;;;;2207428;67;1131;-68
2022/03/01 16:55:04;;;;;;;;;;;;;;;;;;2208069;59;2514;-68
2022/03/01 17:00:13;;;;;;;;;;;;;;;;;;2202833;59;1492;-71
2022/03/01 17:02:46;;;;;;;;;;;;;;;;;;2205403;59;1262;-71
2022/03/01 17:05:22;;;;;;;;;;;;;;;;;;2206342;59;1608;-71
2022/03/01 17:07:55;;;;;;;;;;;;;;;;;;2206969;59;1250;-71
2022/03/01 17:10:29;;;;;;;;;;;;;;;;;;2205888;67;1481;-72
2022/03/01 17:13:02;;;;;;;;;;;;;;;;;;2206969;59;1385;-71
2022/03/01 17:15:35;;;;;;;;;;;;;;;;;;2206174;59;1806;-71
2022/03/01 17:18:09;;;;;;;;;;;;;;;;;;2206710;59;2077;-70
2022/03/01 17:20:45;;;;;;;;;;;;;;;;;;2205767;59;1152;-71
2022/03/01 17:23:20;;;;;;;;;;;;;;;;;;2206551;59;1102;-70
2022/03/01 17:25:53;;;;;;;;;;;;;;;;;;2205188;59;1886;-70
2022/03/01 17:28:26;;;;;;;;;;;;;;;;;;2204266;59;2215;-71
2022/03/01 17:30:59;;;;;;;;;;;;;;;;;;2206393;67;1374;-71
2022/03/01 17:33:33;;;;;;;;;;;;;;;;;;2207222;59;1222;-71
2022/03/01 17:36:09;;;;;;;;;;;;;;;;;;2207697;59;1937;-71
2022/03/01 17:38:42;;;;;;;;;;;;;;;;;;2206185;59;1782;-71
2022/03/01 17:41:15;;;;;;;;;;;;;;;;;;2205189;67;1263;-71
2022/03/01 17:43:48;;;;;;;;;;;;;;;;;;2205120;59;1205;-70
2022/03/01 17:46:21;;;;;;;;;;;;;;;;;;2204844;59;1780;-71
2022/03/01 17:48:54;;;;;;;;;;;;;;;;;;2205945;59;1397;-70
2022/03/01 17:51:32;;;;;;;;;;;;;;;;;;2206372;59;1046;-70
2022/03/01 17:54:06;;;;;;;;;;;;;;;;;;2209586;59;2068;-70
2022/03/01 17:56:39;;;;;;;;;;;;;;;;;;2205614;59;2526;-70
2022/03/01 17:59:12;;;;;;;;;;;;;;;;;;2205145;59;2917;-71